createdAt,value
2022-07-25T00:02:25.598Z,5.38
2022-07-25T00:04:53.724Z,6.68
2022-07-25T00:07:21.742Z,6.03
2022-07-25T00:09:49.721Z,6.37
2022-07-25T00:12:17.676Z,5.60
2022-07-25T00:14:47.012Z,5.85
2022-07-25T00:17:15.058Z,6.17
2022-07-25T00:19:43.098Z,5.72
2022-07-25T00:22:11.080Z,7.25
2022-07-25T00:24:39.069Z,6.10
2022-07-25T00:27:07.025Z,5.20
2022-07-25T00:29:36.014Z,6.20
2022-07-25T00:32:05.888Z,5.75
2022-07-25T00:34:34.452Z,6.07
2022-07-25T00:37:02.532Z,6.77
2022-07-25T00:39:30.550Z,6.10
2022-07-25T00:41:58.518Z,6.18
2022-07-25T00:44:27.749Z,5.97
2022-07-25T00:46:56.751Z,5.40
2022-07-25T00:49:27.752Z,5.40
2022-07-25T00:51:55.938Z,7.07
2022-07-25T00:54:24.360Z,8.82
2022-07-25T00:56:52.618Z,6.18
2022-07-25T00:59:20.611Z,5.95
2022-07-25T01:01:50.532Z,5.50
2022-07-25T01:04:18.583Z,6.22
2022-07-25T01:06:47.977Z,6.90
2022-07-25T01:09:16.736Z,6.77
2022-07-25T01:11:44.741Z,5.90
2022-07-25T01:14:12.705Z,6.87
2022-07-25T01:16:41.733Z,6.22
2022-07-25T01:19:10.204Z,5.85
2022-07-25T01:21:41.122Z,6.85
2022-07-25T01:24:10.342Z,5.95
2022-07-25T01:26:38.488Z,8.07
2022-07-25T01:29:06.449Z,5.20
2022-07-25T01:31:34.604Z,5.63
2022-07-25T01:34:02.933Z,5.97
2022-07-25T01:36:31.299Z,8.02
2022-07-25T01:39:01.165Z,5.70
2022-07-25T01:41:29.144Z,8.00
2022-07-25T01:43:57.174Z,5.68
2022-07-25T01:46:25.169Z,5.45
2022-07-25T01:48:53.254Z,5.60
2022-07-25T01:51:21.292Z,6.15
2022-07-25T01:53:49.812Z,8.00
2022-07-25T01:56:21.875Z,6.10
2022-07-25T01:58:50.654Z,6.18
2022-07-25T02:01:19.472Z,7.38
2022-07-25T02:03:50.095Z,5.90
2022-07-25T02:06:19.317Z,7.50
2022-07-25T02:08:47.542Z,6.60
2022-07-25T02:11:16.154Z,8.25
2022-07-25T02:13:45.647Z,6.10
2022-07-25T02:16:14.005Z,6.57
2022-07-25T02:18:41.934Z,7.77
2022-07-25T02:21:13.839Z,8.23
2022-07-25T02:23:43.050Z,7.60
2022-07-25T02:26:11.097Z,7.50
2022-07-25T02:28:39.087Z,6.47
2022-07-25T02:31:08.927Z,6.63
2022-07-25T02:33:37.337Z,6.95
2022-07-25T02:36:05.766Z,9.68
2022-07-25T02:38:33.746Z,7.78
2022-07-25T02:41:01.771Z,6.88
2022-07-25T02:43:29.729Z,8.67
2022-07-25T02:45:57.718Z,10.52
2022-07-25T02:48:27.163Z,6.18
2022-07-25T02:50:55.130Z,8.20
2022-07-25T02:53:40.298Z,7.85
2022-07-25T02:56:11.013Z,6.15
2022-07-25T02:58:40.092Z,10.07
2022-07-25T03:01:10.077Z,7.68
2022-07-25T03:03:39.545Z,7.75
2022-07-25T03:06:07.846Z,7.50
2022-07-25T03:08:35.757Z,8.25
2022-07-25T03:11:04.821Z,7.80
2022-07-25T03:13:33.819Z,7.05
2022-07-25T03:16:02.306Z,9.50
2022-07-25T03:18:30.400Z,7.50
2022-07-25T03:20:59.674Z,7.30
2022-07-25T03:23:28.421Z,6.60
2022-07-25T03:25:56.700Z,8.63
2022-07-25T03:28:25.264Z,7.68
2022-07-25T03:30:53.583Z,10.40
2022-07-25T03:33:21.535Z,7.40
2022-07-25T03:35:49.410Z,6.93
2022-07-25T03:38:18.760Z,7.63
2022-07-25T03:40:46.744Z,7.80
2022-07-25T03:43:14.765Z,8.55
2022-07-25T03:45:42.816Z,7.32
2022-07-25T03:48:10.797Z,6.50
2022-07-25T03:50:38.770Z,8.73
2022-07-25T03:53:06.737Z,6.97
2022-07-25T03:55:40.377Z,8.80
2022-07-25T03:58:08.327Z,7.25
2022-07-25T04:00:36.504Z,6.72
2022-07-25T04:03:04.994Z,8.35
2022-07-25T04:05:33.004Z,9.75
2022-07-25T04:08:01.036Z,6.97
2022-07-25T04:10:29.110Z,6.80
2022-07-25T04:12:58.589Z,7.03
2022-07-25T04:15:26.692Z,8.68
2022-07-25T04:17:55.174Z,7.40
2022-07-25T04:20:23.420Z,7.30
2022-07-25T04:22:53.142Z,6.85
2022-07-25T04:25:21.157Z,10.50
2022-07-25T04:27:49.066Z,10.40
2022-07-25T04:30:24.045Z,8.73
2022-07-25T04:32:53.408Z,9.27
2022-07-25T04:35:21.535Z,7.90
2022-07-25T04:37:50.019Z,7.70
2022-07-25T04:40:18.061Z,6.93
2022-07-25T04:42:45.967Z,8.45
2022-07-25T04:45:17.679Z,11.73
2022-07-25T04:47:47.576Z,7.20
2022-07-25T04:50:16.082Z,8.65
2022-07-25T04:52:44.185Z,8.23
2022-07-25T04:55:12.267Z,11.43
2022-07-25T04:57:40.345Z,11.15
2022-07-25T05:00:11.779Z,9.05
2022-07-25T05:02:39.811Z,7.20
2022-07-25T05:05:21.029Z,8.23
2022-07-25T05:07:49.944Z,6.70
2022-07-25T05:10:18.333Z,8.70
2022-07-25T05:12:46.281Z,8.48
2022-07-25T05:15:14.690Z,6.47
2022-07-25T05:17:42.655Z,5.55
2022-07-25T05:20:13.931Z,11.32
2022-07-25T05:22:42.168Z,4.78
2022-07-25T05:25:11.548Z,4.40
2022-07-25T05:27:39.886Z,5.80
2022-07-25T05:30:10.409Z,5.43
2022-07-25T05:32:38.631Z,5.18
2022-07-25T05:35:08.845Z,5.90
2022-07-25T05:37:38.959Z,8.30
2022-07-25T05:40:08.278Z,5.70
2022-07-25T05:42:36.686Z,5.30
2022-07-25T05:45:05.294Z,5.70
2022-07-25T05:47:33.246Z,8.98
2022-07-25T05:50:02.330Z,6.15
2022-07-25T05:52:30.432Z,4.30
2022-07-25T05:54:59.683Z,8.57
2022-07-25T05:57:27.633Z,3.60
2022-07-25T05:59:55.582Z,3.47
2022-07-25T06:02:23.629Z,3.33
2022-07-25T06:04:51.690Z,4.05
2022-07-25T06:07:19.617Z,3.40
2022-07-25T06:09:47.600Z,4.55
2022-07-25T06:12:16.810Z,4.40
2022-07-25T06:14:45.405Z,4.88
2022-07-25T06:17:13.531Z,2.92
2022-07-25T06:19:41.494Z,3.38
2022-07-25T06:22:09.582Z,3.25
2022-07-25T06:24:37.554Z,2.43
2022-07-25T06:27:05.730Z,2.40
2022-07-25T06:29:35.117Z,2.90
2022-07-25T06:32:03.194Z,2.58
2022-07-25T06:34:31.264Z,2.30
2022-07-25T06:36:59.522Z,2.97
2022-07-25T06:39:28.553Z,5.90
2022-07-25T06:41:57.368Z,2.47
2022-07-25T06:44:25.329Z,3.05
2022-07-25T06:46:54.698Z,3.53
2022-07-25T06:49:22.661Z,3.25
2022-07-25T06:51:50.576Z,3.90
2022-07-25T06:54:19.119Z,4.05
2022-07-25T06:56:47.271Z,2.17
2022-07-25T06:59:15.402Z,2.65
2022-07-25T07:01:45.063Z,3.40
2022-07-25T07:04:17.544Z,6.43
2022-07-25T07:06:45.481Z,3.83
2022-07-25T07:09:13.448Z,4.80
2022-07-25T07:11:41.395Z,5.57
2022-07-25T07:14:09.721Z,2.95
2022-07-25T07:16:37.996Z,6.90
2022-07-25T07:19:06.245Z,3.35
2022-07-25T07:21:35.750Z,2.55
2022-07-25T07:24:03.699Z,4.67
2022-07-25T07:26:51.515Z,6.00
2022-07-25T07:29:19.485Z,2.80
2022-07-25T07:31:47.560Z,4.90
2022-07-25T07:34:16.449Z,2.17
2022-07-25T07:36:46.117Z,4.73
2022-07-25T07:39:14.507Z,8.57
2022-07-25T07:41:42.455Z,3.40
2022-07-25T07:44:10.394Z,4.20
2022-07-25T07:46:38.414Z,4.70
2022-07-25T07:49:06.644Z,5.93
2022-07-25T07:51:34.835Z,4.25
2022-07-25T07:54:21.938Z,5.30
2022-07-25T07:56:50.065Z,4.70
2022-07-25T07:59:18.264Z,3.83
2022-07-25T08:01:46.266Z,4.88
2022-07-25T08:04:14.190Z,6.07
2022-07-25T08:06:43.202Z,6.03
2022-07-25T08:09:12.532Z,5.05
2022-07-25T08:11:40.473Z,7.72
2022-07-25T08:14:08.556Z,5.93
2022-07-25T08:16:36.758Z,4.85
2022-07-25T08:19:04.940Z,8.52
2022-07-25T08:21:33.040Z,5.67
2022-07-25T08:24:00.975Z,6.90
2022-07-25T08:26:31.239Z,4.55
2022-07-25T08:29:17.727Z,6.50
2022-07-25T08:31:46.993Z,5.55
2022-07-25T08:34:14.998Z,3.60
2022-07-25T08:36:43.273Z,5.10
2022-07-25T08:39:11.201Z,5.05
2022-07-25T08:41:42.226Z,5.87
2022-07-25T08:44:10.578Z,5.47
2022-07-25T08:46:41.676Z,6.70
2022-07-25T08:49:10.518Z,5.38
2022-07-25T08:51:39.617Z,5.35
2022-07-25T08:54:08.339Z,6.10
2022-07-25T08:56:36.689Z,6.80
2022-07-25T08:59:06.044Z,3.78
2022-07-25T09:01:35.127Z,4.10
2022-07-25T09:04:04.797Z,7.47
2022-07-25T09:06:33.150Z,4.55
2022-07-25T09:09:04.506Z,2.50
2022-07-25T09:11:34.157Z,8.13
2022-07-25T09:14:07.246Z,5.80
2022-07-25T09:16:39.025Z,5.15
2022-07-25T09:19:11.378Z,5.20
2022-07-25T09:21:40.701Z,3.78
2022-07-25T09:24:13.566Z,7.68
2022-07-25T09:26:49.434Z,3.65
2022-07-25T09:29:20.929Z,4.83
2022-07-25T09:31:49.335Z,4.97
2022-07-25T09:34:33.890Z,5.80
2022-07-25T09:37:02.181Z,3.45
2022-07-25T09:39:45.999Z,5.50
2022-07-25T09:42:23.744Z,4.90
2022-07-25T09:45:11.820Z,4.78
2022-07-25T09:47:52.116Z,7.97
2022-07-25T09:50:21.451Z,6.20
2022-07-25T09:52:51.213Z,4.20
2022-07-25T09:55:20.191Z,4.50
2022-07-25T09:57:49.041Z,4.50
2022-07-25T10:00:23.340Z,4.25
2022-07-25T10:03:02.555Z,4.83
2022-07-25T10:05:39.326Z,7.40
2022-07-25T10:08:08.911Z,5.15
2022-07-25T10:10:40.107Z,4.85
2022-07-25T10:13:11.426Z,5.70
2022-07-25T10:15:46.661Z,4.70
2022-07-25T10:18:15.988Z,8.07
2022-07-25T10:20:44.931Z,11.70
2022-07-25T10:23:24.268Z,9.90
2022-07-25T10:26:09.465Z,6.35
2022-07-25T10:28:43.192Z,8.82
2022-07-25T10:31:25.112Z,5.53
2022-07-25T10:33:55.373Z,4.93
2022-07-25T10:36:25.079Z,7.07
2022-07-25T10:38:57.030Z,5.78
2022-07-25T10:41:27.077Z,5.75
2022-07-25T10:44:00.691Z,8.18
2022-07-25T10:46:32.515Z,10.27
2022-07-25T10:49:05.561Z,7.00
2022-07-25T10:51:39.582Z,7.05
2022-07-25T10:54:17.494Z,6.77
2022-07-25T10:56:57.080Z,8.05
2022-07-25T10:59:30.052Z,8.05
2022-07-25T11:01:59.990Z,12.57
2022-07-25T11:04:28.840Z,12.30
2022-07-25T11:06:56.962Z,8.52
2022-07-25T11:09:28.155Z,6.15
2022-07-25T11:11:58.034Z,7.00
2022-07-25T11:14:31.229Z,10.95
2022-07-25T11:17:15.497Z,12.15
2022-07-25T11:19:45.311Z,9.45
2022-07-25T11:22:13.404Z,5.65
2022-07-25T11:24:43.055Z,8.50
2022-07-25T11:27:12.793Z,12.55
2022-07-25T11:29:41.350Z,12.20
2022-07-25T11:32:12.541Z,7.53
2022-07-25T11:34:43.199Z,10.02
2022-07-25T11:37:14.393Z,9.48
2022-07-25T11:39:44.581Z,11.38
2022-07-25T11:42:16.178Z,9.40
2022-07-25T11:44:47.967Z,6.88
2022-07-25T11:47:28.406Z,7.22
2022-07-25T11:49:59.083Z,5.53
2022-07-25T11:52:30.116Z,10.55
2022-07-25T11:55:00.808Z,8.70
2022-07-25T11:57:30.692Z,9.25
2022-07-25T12:00:00.319Z,7.37
2022-07-25T12:02:31.945Z,4.38
2022-07-25T12:05:01.699Z,8.35
2022-07-25T12:07:41.077Z,9.07
2022-07-25T12:10:12.308Z,8.15
2022-07-25T12:12:49.333Z,8.50
2022-07-25T12:15:20.272Z,9.57
2022-07-25T12:17:50.402Z,5.57
2022-07-25T12:20:20.195Z,9.80
2022-07-25T12:22:49.491Z,5.82
2022-07-25T12:25:17.634Z,8.50
2022-07-25T12:27:45.957Z,9.50
2022-07-25T12:30:14.682Z,10.55
2022-07-25T12:32:43.198Z,7.10
2022-07-25T12:35:14.848Z,13.73
2022-07-25T12:37:43.309Z,9.70
2022-07-25T12:40:12.687Z,9.55
2022-07-25T12:42:40.712Z,10.20
2022-07-25T12:45:09.778Z,15.20
2022-07-25T12:47:37.981Z,11.88
2022-07-25T12:50:07.253Z,7.23
2022-07-25T12:52:37.814Z,7.40
2022-07-25T12:55:06.812Z,11.18
2022-07-25T12:57:36.681Z,8.57
2022-07-25T13:00:06.542Z,7.82
2022-07-25T13:02:34.579Z,7.28
2022-07-25T13:05:02.772Z,13.85
2022-07-25T13:07:30.800Z,9.50
2022-07-25T13:10:00.334Z,5.80
2022-07-25T13:12:28.519Z,9.43
2022-07-25T13:14:56.727Z,6.80
2022-07-25T13:17:27.580Z,7.90
2022-07-25T13:19:56.605Z,10.50
2022-07-25T13:22:24.718Z,9.77
2022-07-25T13:24:52.987Z,7.88
2022-07-25T13:27:23.159Z,4.60
2022-07-25T13:29:54.656Z,7.80
2022-07-25T13:32:23.564Z,6.60
2022-07-25T13:34:51.852Z,7.57
2022-07-25T13:37:19.821Z,7.20
2022-07-25T13:39:47.706Z,8.33
2022-07-25T13:42:15.724Z,10.68
2022-07-25T13:44:44.964Z,6.10
2022-07-25T13:47:12.994Z,8.88
2022-07-25T13:49:41.293Z,5.00
2022-07-25T13:52:09.462Z,7.53
2022-07-25T13:54:37.597Z,4.78
2022-07-25T13:57:05.725Z,8.60
2022-07-25T13:59:33.746Z,4.45
2022-07-25T14:02:03.129Z,4.50
2022-07-25T14:04:31.555Z,6.05
2022-07-25T14:07:01.119Z,5.63
2022-07-25T14:09:29.329Z,10.95
2022-07-25T14:11:57.256Z,9.45
2022-07-25T14:14:25.174Z,9.43
2022-07-25T14:16:53.639Z,4.45
2022-07-25T14:19:24.099Z,8.10
2022-07-25T14:21:52.195Z,3.30
2022-07-25T14:24:20.098Z,3.70
2022-07-25T14:26:49.182Z,7.13
2022-07-25T14:29:17.085Z,5.20
2022-07-25T14:31:45.121Z,5.00
2022-07-25T14:34:15.368Z,5.28
2022-07-25T14:36:47.446Z,3.35
2022-07-25T14:39:16.177Z,3.38
2022-07-25T14:41:44.179Z,2.53
2022-07-25T14:44:13.325Z,7.18
2022-07-25T14:46:43.015Z,3.80
2022-07-25T14:49:13.332Z,7.47
2022-07-25T14:51:41.414Z,4.90
2022-07-25T14:54:10.885Z,5.30
2022-07-25T14:56:38.914Z,5.38
2022-07-25T14:59:08.272Z,5.57
2022-07-25T15:01:37.058Z,6.07
2022-07-25T15:04:05.372Z,4.27
2022-07-25T15:06:33.525Z,5.18
2022-07-25T15:09:01.581Z,6.03
2022-07-25T15:11:30.904Z,7.73
2022-07-25T15:13:58.836Z,3.95
2022-07-25T15:16:26.937Z,7.32
2022-07-25T15:21:43.541Z,8.13
2022-07-25T15:24:11.781Z,4.78
2022-07-25T15:26:41.188Z,7.53
2022-07-25T15:29:11.167Z,9.47
2022-07-25T15:31:39.360Z,6.05
2022-07-25T15:34:07.624Z,9.63
2022-07-25T15:36:35.568Z,3.47
2022-07-25T15:39:03.717Z,5.18
2022-07-25T15:41:32.009Z,7.93
2022-07-25T15:44:01.485Z,10.18
2022-07-25T15:46:29.490Z,6.75
2022-07-25T15:48:58.475Z,7.80
2022-07-25T15:51:26.509Z,6.60
2022-07-25T15:53:54.435Z,4.07
2022-07-25T15:56:22.658Z,4.05
2022-07-25T15:58:50.730Z,11.60
2022-07-25T16:01:20.424Z,5.63
2022-07-25T16:03:48.425Z,9.90
2022-07-25T16:06:20.558Z,5.43
2022-07-25T16:08:50.010Z,9.05
2022-07-25T16:11:18.067Z,8.07
2022-07-25T16:13:46.038Z,6.82
2022-07-25T16:16:14.673Z,8.43
2022-07-25T16:18:44.250Z,11.70
2022-07-25T16:21:12.348Z,6.82
2022-07-25T16:23:44.957Z,7.93
2022-07-25T16:26:13.916Z,5.53
2022-07-25T16:28:41.981Z,7.40
2022-07-25T16:31:10.172Z,4.68
2022-07-25T16:33:38.169Z,9.02
2022-07-25T16:36:08.425Z,7.63
2022-07-25T16:38:36.381Z,7.85
2022-07-25T16:41:04.496Z,7.28
2022-07-25T16:43:32.582Z,12.05
2022-07-25T16:46:01.933Z,9.45
2022-07-25T16:48:30.676Z,9.13
2022-07-25T16:50:58.930Z,9.30
2022-07-25T16:53:28.253Z,15.43
2022-07-25T16:55:56.324Z,12.68
2022-07-25T16:58:24.231Z,13.13
2022-07-25T17:00:52.239Z,10.52
2022-07-25T17:03:20.509Z,9.80
2022-07-25T17:05:51.519Z,11.80
2022-07-25T17:08:19.802Z,8.10
2022-07-25T17:10:49.128Z,7.90
2022-07-25T17:13:17.103Z,9.07
2022-07-25T17:15:45.498Z,8.07
2022-07-25T17:18:14.257Z,11.73
2022-07-25T17:20:42.206Z,12.75
2022-07-25T17:23:10.202Z,7.00
2022-07-25T17:25:39.586Z,13.90
2022-07-25T17:28:09.358Z,7.35
2022-07-25T17:30:37.358Z,9.33
2022-07-25T17:33:05.529Z,8.80
2022-07-25T17:35:33.785Z,9.82
2022-07-25T17:38:02.127Z,5.75
2022-07-25T17:40:30.360Z,10.60
2022-07-25T17:42:58.699Z,10.90
2022-07-25T17:45:27.999Z,7.68
2022-07-25T17:47:55.914Z,7.88
2022-07-25T17:50:29.200Z,7.82
2022-07-25T17:52:59.542Z,6.72
2022-07-25T17:55:28.791Z,10.88
2022-07-25T17:57:59.520Z,8.30
2022-07-25T18:00:28.862Z,9.23
2022-07-25T18:02:57.084Z,10.73
2022-07-25T18:05:25.260Z,11.30
2022-07-25T18:07:53.900Z,10.95
2022-07-25T18:10:22.708Z,6.72
2022-07-25T18:12:51.384Z,10.93
2022-07-25T18:15:19.437Z,13.35
2022-07-25T18:17:49.096Z,8.20
2022-07-25T18:20:18.043Z,12.85
2022-07-25T18:22:46.164Z,7.65
2022-07-25T18:25:14.974Z,15.02
2022-07-25T18:27:43.425Z,11.55
2022-07-25T18:30:12.867Z,12.77
2022-07-25T18:32:42.650Z,13.43
2022-07-25T18:35:12.216Z,10.85
2022-07-25T18:37:40.301Z,8.05
2022-07-25T18:40:10.032Z,6.90
2022-07-25T18:42:38.093Z,8.63
2022-07-25T18:45:07.174Z,8.40
2022-07-25T18:47:35.209Z,12.77
2022-07-25T18:50:04.391Z,8.75
2022-07-25T18:52:36.129Z,8.50
2022-07-25T18:55:05.233Z,11.00
2022-07-25T18:57:33.468Z,13.05
2022-07-25T19:00:03.429Z,9.50
2022-07-25T19:02:31.903Z,10.48
2022-07-25T19:04:59.993Z,10.35
2022-07-25T19:07:29.809Z,13.73
2022-07-25T19:09:59.174Z,8.13
2022-07-25T19:12:27.365Z,12.07
2022-07-25T19:14:56.182Z,10.23
2022-07-25T19:17:24.689Z,10.07
2022-07-25T19:19:53.298Z,11.35
2022-07-25T19:22:21.257Z,12.93
2022-07-25T19:24:49.200Z,12.18
2022-07-25T19:27:19.361Z,14.25
2022-07-25T19:29:49.170Z,15.75
2022-07-25T19:32:18.080Z,14.05
2022-07-25T19:34:46.467Z,11.00
2022-07-25T19:37:14.384Z,10.93
2022-07-25T19:39:42.370Z,11.80
2022-07-25T19:42:12.210Z,10.93
2022-07-25T19:44:41.551Z,11.60
2022-07-25T19:47:11.874Z,12.07
2022-07-25T19:49:40.819Z,14.95
2022-07-25T19:52:09.738Z,16.03
2022-07-25T19:54:38.042Z,12.88
2022-07-25T19:57:06.097Z,20.70
2022-07-25T19:59:34.139Z,10.10
2022-07-25T20:02:04.133Z,16.25
2022-07-25T20:04:32.300Z,11.50
2022-07-25T20:07:02.280Z,13.48
2022-07-25T20:09:30.656Z,13.50
2022-07-25T20:11:58.977Z,12.60
2022-07-25T20:14:26.857Z,16.63
2022-07-25T20:16:55.027Z,18.13
2022-07-25T20:19:24.869Z,11.85
2022-07-25T20:21:53.025Z,13.32
2022-07-25T20:24:21.899Z,12.05
2022-07-25T20:26:50.154Z,11.07
2022-07-25T20:29:18.280Z,12.85
2022-07-25T20:31:46.253Z,14.95
2022-07-25T20:34:14.337Z,15.35
2022-07-25T20:36:43.643Z,9.98
2022-07-25T20:39:11.578Z,16.63
2022-07-25T20:41:41.242Z,13.13
2022-07-25T20:44:11.386Z,11.10
2022-07-25T20:46:39.706Z,16.60
2022-07-25T20:49:09.660Z,12.50
2022-07-25T20:51:39.705Z,15.60
2022-07-25T20:54:09.534Z,10.55
2022-07-25T20:56:37.532Z,14.30
2022-07-25T20:59:05.702Z,13.88
2022-07-25T21:01:34.099Z,13.45
2022-07-25T21:04:07.059Z,16.58
2022-07-25T21:06:36.909Z,15.82
2022-07-25T21:09:05.835Z,11.25
2022-07-25T21:11:35.947Z,12.13
2022-07-25T21:14:04.766Z,14.33
2022-07-25T21:16:33.815Z,16.75
2022-07-25T21:19:01.904Z,12.30
2022-07-25T21:21:29.850Z,13.30
2022-07-25T21:23:57.854Z,13.60
2022-07-25T21:26:26.674Z,19.25
2022-07-25T21:28:56.014Z,16.08
2022-07-25T21:31:24.058Z,13.63
2022-07-25T21:33:52.056Z,10.10
2022-07-25T21:36:19.981Z,11.80
2022-07-25T21:38:47.942Z,16.63
2022-07-25T21:41:16.366Z,12.95
2022-07-25T21:43:44.336Z,12.65
2022-07-25T21:46:13.594Z,15.50
2022-07-25T21:49:14.197Z,12.10
2022-07-25T21:51:42.365Z,11.88
2022-07-25T21:54:11.016Z,15.38
2022-07-25T21:56:41.254Z,13.38
2022-07-25T21:59:09.704Z,12.20
2022-07-25T22:01:39.910Z,14.30
2022-07-25T22:04:08.017Z,14.77
2022-07-25T22:06:36.204Z,15.48
2022-07-25T22:09:06.516Z,12.95
2022-07-25T22:11:42.372Z,15.63
2022-07-25T22:14:14.231Z,14.38
2022-07-25T22:16:43.972Z,18.38
2022-07-25T22:19:12.111Z,16.37
2022-07-25T22:21:41.225Z,15.52
2022-07-25T22:24:09.602Z,13.18
2022-07-25T22:26:37.642Z,15.75
2022-07-25T22:29:05.939Z,13.88
2022-07-25T22:31:34.148Z,21.48
2022-07-25T22:34:03.517Z,15.53
2022-07-25T22:36:31.534Z,19.40
2022-07-25T22:38:59.521Z,16.75
2022-07-25T22:41:27.779Z,13.23
2022-07-25T22:43:58.797Z,10.98
2022-07-25T22:46:29.405Z,13.77
2022-07-25T22:48:57.937Z,15.68
2022-07-25T22:51:27.781Z,15.25
2022-07-25T22:53:56.041Z,16.42
2022-07-25T22:56:24.456Z,16.45
2022-07-25T22:58:52.477Z,14.32
2022-07-25T23:01:21.423Z,14.73
2022-07-25T23:03:50.314Z,15.00
2022-07-25T23:06:19.525Z,17.23
2022-07-25T23:08:49.253Z,18.10
2022-07-25T23:11:17.638Z,14.80
2022-07-25T23:13:45.698Z,15.50
2022-07-25T23:16:13.756Z,13.50
2022-07-25T23:18:41.959Z,15.20
2022-07-25T23:21:10.098Z,16.67
2022-07-25T23:23:38.385Z,19.58
2022-07-25T23:26:07.741Z,15.60
2022-07-25T23:28:35.750Z,14.60
2022-07-25T23:31:03.728Z,15.77
2022-07-25T23:33:31.915Z,14.73
2022-07-25T23:36:00.545Z,13.82
2022-07-25T23:38:28.523Z,13.45
2022-07-25T23:40:56.648Z,14.40
2022-07-25T23:43:55.000Z,9.43
2022-07-25T23:46:14.017Z,12.90
2022-07-25T23:48:43.148Z,12.45
2022-07-25T23:51:11.286Z,13.10
2022-07-25T23:53:39.220Z,16.58
2022-07-25T23:56:07.319Z,16.25
2022-07-25T23:58:36.681Z,13.80
